createdAt,value
2023-05-21T10:45:16.408Z,993.96
2023-05-21T10:46:16.558Z,993.94
2023-05-21T10:47:16.564Z,993.93
2023-05-21T10:48:16.626Z,993.93
2023-05-21T10:49:18.225Z,993.89
2023-05-21T10:50:18.072Z,993.87
2023-05-21T10:51:18.126Z,993.89
2023-05-21T10:52:18.037Z,993.96
2023-05-21T10:53:18.030Z,993.90
2023-05-21T10:54:17.816Z,993.80
2023-05-21T10:55:17.651Z,993.81
2023-05-21T10:56:17.492Z,993.78
2023-05-21T10:57:17.623Z,993.81
2023-05-21T10:58:17.318Z,993.83
2023-05-21T10:59:17.369Z,993.83
2023-05-21T11:00:17.892Z,993.81
2023-05-21T11:01:17.741Z,993.79
2023-05-21T11:02:18.032Z,993.75
2023-05-21T11:03:17.829Z,993.78
2023-05-21T11:04:17.969Z,993.81
2023-05-21T11:05:18.069Z,993.85
2023-05-21T11:06:17.712Z,993.86
2023-05-21T11:07:17.651Z,993.82
2023-05-21T11:08:17.854Z,993.79
2023-05-21T11:09:17.624Z,993.85
2023-05-21T11:10:17.924Z,993.83
2023-05-21T11:11:17.635Z,993.83
2023-05-21T11:12:17.696Z,993.77
2023-05-21T11:13:17.928Z,993.77
2023-05-21T11:14:19.215Z,993.79
2023-05-21T11:15:17.697Z,993.80
2023-05-21T11:16:17.759Z,993.76
2023-05-21T11:17:17.954Z,993.75
2023-05-21T11:18:17.467Z,993.76
2023-05-21T11:19:17.320Z,993.76
2023-05-21T11:20:17.870Z,993.77
2023-05-21T11:21:17.224Z,993.78
2023-05-21T11:22:17.396Z,993.74
2023-05-21T11:23:17.972Z,993.72
2023-05-21T11:24:17.466Z,993.74
2023-05-21T11:25:17.475Z,993.72
2023-05-21T11:26:17.427Z,993.65
2023-05-21T11:27:17.342Z,993.70
2023-05-21T11:28:17.632Z,993.65
2023-05-21T11:29:17.808Z,993.65
2023-05-21T11:30:17.722Z,993.67
2023-05-21T11:31:17.853Z,993.63
2023-05-21T11:32:17.758Z,993.61
2023-05-21T11:33:17.464Z,993.58
2023-05-21T11:34:17.964Z,993.56
2023-05-21T11:35:17.401Z,993.56
2023-05-21T11:36:17.181Z,993.62
2023-05-21T11:37:17.143Z,993.48
2023-05-21T11:38:17.206Z,993.51
2023-05-21T11:39:17.081Z,993.53
2023-05-21T11:40:17.372Z,993.48
2023-05-21T11:41:17.485Z,993.49
2023-05-21T11:42:17.880Z,993.48
2023-05-21T11:43:17.322Z,993.49
2023-05-21T11:44:17.715Z,993.47
2023-05-21T11:45:17.775Z,993.43
2023-05-21T11:46:17.284Z,993.42
2023-05-21T11:47:17.902Z,993.46
2023-05-21T11:48:17.457Z,993.35
2023-05-21T11:49:17.483Z,993.42
2023-05-21T11:50:17.427Z,993.44
2023-05-21T11:51:17.279Z,993.38
2023-05-21T11:52:17.104Z,993.42
2023-05-21T11:53:17.724Z,993.41
2023-05-21T11:54:17.437Z,993.45
2023-05-21T11:55:17.025Z,993.45
2023-05-21T11:56:17.278Z,993.36
2023-05-21T11:57:17.191Z,993.44
2023-05-21T11:58:17.310Z,993.40
2023-05-21T11:59:18.672Z,993.39
2023-05-21T12:00:17.878Z,993.35
2023-05-21T12:01:17.120Z,993.39
2023-05-21T12:02:17.044Z,993.35
2023-05-21T12:03:17.042Z,993.37
2023-05-21T12:04:17.013Z,993.39
2023-05-21T12:05:16.847Z,993.37
2023-05-21T12:06:17.354Z,993.44
2023-05-21T12:07:16.942Z,993.43
2023-05-21T12:08:17.078Z,993.45
2023-05-21T12:09:16.776Z,993.41
2023-05-21T12:10:17.301Z,993.39
2023-05-21T12:11:17.199Z,993.42
2023-05-21T12:12:17.034Z,993.30
2023-05-21T12:13:17.250Z,993.31
2023-05-21T12:14:17.371Z,993.25
2023-05-21T12:15:16.904Z,993.32
2023-05-21T12:16:17.211Z,993.34
2023-05-21T12:17:16.755Z,993.23
2023-05-21T12:18:17.321Z,993.34
2023-05-21T12:19:16.726Z,993.31
2023-05-21T12:20:16.720Z,993.34
2023-05-21T12:21:16.934Z,993.35
2023-05-21T12:22:17.077Z,993.29
2023-05-21T12:23:16.816Z,993.27
2023-05-21T12:24:17.298Z,993.30
2023-05-21T12:25:17.306Z,993.29
2023-05-21T12:26:17.077Z,993.30
2023-05-21T12:27:16.769Z,993.31
2023-05-21T12:28:17.354Z,993.38
2023-05-21T12:29:16.859Z,993.33
2023-05-21T12:30:16.912Z,993.36
2023-05-21T12:31:17.421Z,993.39
2023-05-21T12:32:16.886Z,993.35
2023-05-21T12:33:16.969Z,993.32
2023-05-21T12:34:16.939Z,993.37
2023-05-21T12:35:17.693Z,993.31
2023-05-21T12:36:17.422Z,993.33
2023-05-21T12:37:17.125Z,993.38
2023-05-21T12:38:18.080Z,993.28
2023-05-21T12:39:17.034Z,993.32
2023-05-21T12:40:17.239Z,993.32
2023-05-21T12:41:17.079Z,993.37
2023-05-21T12:42:17.380Z,993.38
2023-05-21T12:43:17.197Z,993.35
2023-05-21T12:44:17.075Z,993.28
2023-05-21T12:45:17.125Z,993.31
2023-05-21T12:46:17.030Z,993.25
2023-05-21T12:47:16.702Z,993.23
2023-05-21T12:48:16.762Z,993.25
2023-05-21T12:49:16.626Z,993.23
2023-05-21T12:50:17.260Z,993.19
2023-05-21T12:51:17.568Z,993.18
2023-05-21T12:52:16.989Z,993.27
2023-05-21T12:53:17.047Z,993.25
2023-05-21T12:54:16.838Z,993.18
2023-05-21T12:55:17.200Z,993.21
2023-05-21T12:56:16.978Z,993.12
2023-05-21T12:57:17.201Z,993.12
2023-05-21T12:58:16.855Z,993.11
2023-05-21T12:59:17.453Z,993.14
2023-05-21T13:00:16.746Z,993.18
2023-05-21T13:01:17.040Z,993.08
2023-05-21T13:02:17.295Z,993.05
2023-05-21T13:03:16.673Z,993.07
2023-05-21T13:04:17.064Z,993.06
2023-05-21T13:05:16.897Z,993.03
2023-05-21T13:06:17.100Z,992.97
2023-05-21T13:07:17.190Z,993.08
2023-05-21T13:08:17.065Z,993.06
2023-05-21T13:09:17.025Z,993.06
2023-05-21T13:10:17.132Z,993.04
2023-05-21T13:11:18.134Z,993.00
2023-05-21T13:12:17.212Z,993.02
2023-05-21T13:13:16.996Z,993.06
2023-05-21T13:14:16.791Z,993.00
2023-05-21T13:15:16.813Z,993.02
2023-05-21T13:16:17.038Z,993.02
2023-05-21T13:17:17.432Z,993.02
2023-05-21T13:18:17.000Z,993.03
2023-05-21T13:19:17.130Z,993.01
2023-05-21T13:20:16.718Z,993.04
2023-05-21T13:21:16.934Z,992.99
2023-05-21T13:22:16.972Z,993.00
2023-05-21T13:23:17.384Z,992.93
2023-05-21T13:24:16.980Z,993.02
2023-05-21T13:25:16.800Z,992.95
2023-05-21T13:26:16.667Z,992.91
2023-05-21T13:27:16.874Z,992.86
2023-05-21T13:28:18.024Z,992.89
2023-05-21T13:29:16.649Z,992.89
2023-05-21T13:30:16.756Z,992.86
2023-05-21T13:31:16.255Z,992.91
2023-05-21T13:32:16.774Z,992.84
2023-05-21T13:33:17.131Z,992.87
2023-05-21T13:34:16.641Z,992.85
2023-05-21T13:35:17.277Z,992.88
2023-05-21T13:36:16.777Z,992.88
2023-05-21T13:37:17.092Z,992.82
2023-05-21T13:38:16.687Z,992.83
2023-05-21T13:39:16.693Z,992.90
2023-05-21T13:40:16.582Z,992.91
2023-05-21T13:41:16.588Z,992.88
2023-05-21T13:42:16.887Z,992.87
2023-05-21T13:43:16.624Z,992.83
2023-05-21T13:44:16.911Z,992.97
2023-05-21T13:45:16.637Z,992.93
2023-05-21T13:46:16.743Z,992.84
2023-05-21T13:47:16.606Z,992.91
2023-05-21T13:48:16.727Z,992.96
2023-05-21T13:49:16.678Z,992.97
2023-05-21T13:50:16.979Z,992.94
2023-05-21T13:51:30.788Z,992.91
2023-05-21T13:52:18.038Z,992.86
2023-05-21T13:53:16.327Z,992.93
2023-05-21T13:54:16.661Z,992.91
2023-05-21T13:55:16.268Z,992.92
2023-05-21T13:56:16.724Z,992.93
2023-05-21T13:57:16.697Z,992.87
2023-05-21T13:58:16.396Z,992.93
2023-05-21T13:59:16.623Z,992.98
2023-05-21T14:00:16.594Z,992.86
2023-05-21T14:01:16.541Z,992.92
2023-05-21T14:02:16.666Z,992.94
2023-05-21T14:03:16.542Z,992.94
2023-05-21T14:04:16.776Z,992.96
2023-05-21T14:05:16.374Z,992.97
2023-05-21T14:06:16.378Z,992.98
2023-05-21T14:07:16.362Z,993.01
2023-05-21T14:08:16.588Z,992.95
2023-05-21T14:09:16.466Z,992.94
2023-05-21T14:10:16.501Z,992.96
2023-05-21T14:11:16.674Z,992.98
2023-05-21T14:12:16.421Z,992.93
2023-05-21T14:13:20.021Z,992.95
2023-05-21T14:14:17.062Z,992.96
2023-05-21T14:15:16.625Z,992.89
2023-05-21T14:16:16.785Z,992.84
2023-05-21T14:17:17.701Z,992.85
2023-05-21T14:18:16.438Z,992.86
2023-05-21T14:19:16.574Z,992.89
2023-05-21T14:20:17.669Z,992.90
2023-05-21T14:21:16.668Z,992.79
2023-05-21T14:22:16.370Z,992.76
2023-05-21T14:23:16.318Z,992.82
2023-05-21T14:24:16.379Z,992.72
2023-05-21T14:25:16.360Z,992.75
2023-05-21T14:26:16.457Z,992.81
2023-05-21T14:27:17.854Z,992.76
2023-05-21T14:28:16.663Z,992.79
2023-05-21T14:29:16.474Z,992.74
2023-05-21T14:30:16.570Z,992.70
2023-05-21T14:31:16.543Z,992.71
2023-05-21T14:32:16.889Z,992.70
2023-05-21T14:33:16.755Z,992.74
2023-05-21T14:34:16.388Z,992.69
2023-05-21T14:35:16.439Z,992.67
2023-05-21T14:36:16.430Z,992.69
2023-05-21T14:37:16.318Z,992.69
2023-05-21T14:38:15.996Z,992.73
2023-05-21T14:39:16.231Z,992.72
2023-05-21T14:40:16.074Z,992.69
2023-05-21T14:41:16.373Z,992.65
2023-05-21T14:42:17.009Z,992.64
2023-05-21T14:43:16.147Z,992.64
2023-05-21T14:44:16.258Z,992.63
2023-05-21T14:45:18.660Z,992.62
2023-05-21T14:46:17.201Z,992.67
2023-05-21T14:47:16.571Z,992.65
2023-05-21T14:48:16.698Z,992.68
2023-05-21T14:49:16.286Z,992.65
2023-05-21T14:50:16.439Z,992.68
2023-05-21T14:51:16.452Z,992.63
2023-05-21T14:52:16.359Z,992.61
2023-05-21T14:53:18.436Z,992.59
2023-05-21T14:54:16.225Z,992.53
2023-05-21T14:55:17.295Z,992.58
2023-05-21T14:56:17.293Z,992.60
2023-05-21T14:57:16.241Z,992.53
2023-05-21T14:58:16.636Z,992.49
2023-05-21T14:59:16.236Z,992.47
2023-05-21T15:00:16.193Z,992.49
2023-05-21T15:01:16.152Z,992.50
2023-05-21T15:02:16.219Z,992.55
2023-05-21T15:03:16.325Z,992.52
2023-05-21T15:04:16.211Z,992.54
2023-05-21T15:05:16.386Z,992.55
2023-05-21T15:06:17.270Z,992.54
2023-05-21T15:07:16.110Z,992.56
2023-05-21T15:08:16.093Z,992.52
2023-05-21T15:09:16.448Z,992.55
2023-05-21T15:10:18.578Z,992.47
2023-05-21T15:11:16.168Z,992.43
2023-05-21T15:12:16.342Z,992.50
2023-05-21T15:13:16.266Z,992.51
2023-05-21T15:14:16.676Z,992.53
2023-05-21T15:15:16.276Z,992.49
2023-05-21T15:16:17.358Z,992.40
2023-05-21T15:17:16.243Z,992.46
2023-05-21T15:18:15.886Z,992.45
2023-05-21T15:19:15.999Z,992.43
2023-05-21T15:20:16.701Z,992.42
2023-05-21T15:21:16.059Z,992.34
2023-05-21T15:22:16.128Z,992.32
2023-05-21T15:23:17.725Z,992.32
2023-05-21T15:24:17.113Z,992.26
2023-05-21T15:25:16.397Z,992.25
2023-05-21T15:26:16.396Z,992.15
2023-05-21T15:27:15.883Z,992.22
2023-05-21T15:28:15.967Z,992.22
2023-05-21T15:29:17.140Z,992.17
2023-05-21T15:30:16.017Z,992.24
2023-05-21T15:31:16.154Z,992.21
2023-05-21T15:32:15.809Z,992.25
2023-05-21T15:33:15.957Z,992.26
2023-05-21T15:34:16.185Z,992.23
2023-05-21T15:35:15.873Z,992.26
2023-05-21T15:36:15.850Z,992.24
2023-05-21T15:37:15.664Z,992.35
2023-05-21T15:38:15.608Z,992.28
2023-05-21T15:39:15.774Z,992.28
2023-05-21T15:40:15.734Z,992.34
2023-05-21T15:41:15.855Z,992.33
2023-05-21T15:42:15.792Z,992.28
2023-05-21T15:43:15.648Z,992.29
2023-05-21T15:44:15.850Z,992.33
2023-05-21T15:45:15.888Z,992.36
2023-05-21T15:46:16.256Z,992.32
2023-05-21T15:47:15.896Z,992.40
2023-05-21T15:48:15.878Z,992.39
2023-05-21T15:49:16.750Z,992.39
2023-05-21T15:50:15.878Z,992.37
2023-05-21T15:51:15.824Z,992.41
2023-05-21T15:52:17.168Z,992.43
2023-05-21T15:53:15.874Z,992.33
2023-05-21T15:54:15.890Z,992.37
2023-05-21T15:55:15.851Z,992.41
2023-05-21T15:56:15.921Z,992.37
2023-05-21T15:57:16.083Z,992.46
2023-05-21T15:58:15.657Z,992.43
2023-05-21T15:59:15.773Z,992.48
2023-05-21T16:00:15.678Z,992.50
2023-05-21T16:01:15.902Z,992.43
2023-05-21T16:02:16.497Z,992.52
2023-05-21T16:03:15.794Z,992.51
2023-05-21T16:04:15.753Z,992.52
2023-05-21T16:05:15.593Z,992.38
2023-05-21T16:06:15.212Z,992.42
2023-05-21T16:07:15.721Z,992.42
2023-05-21T16:08:15.900Z,992.44
2023-05-21T16:09:15.704Z,992.41
2023-05-21T16:10:15.783Z,992.38
2023-05-21T16:11:15.857Z,992.52
2023-05-21T16:12:15.879Z,992.44
2023-05-21T16:13:15.974Z,992.48
2023-05-21T16:14:15.728Z,992.40
2023-05-21T16:15:15.804Z,992.43
2023-05-21T16:16:15.603Z,992.36
2023-05-21T16:17:15.646Z,992.32
2023-05-21T16:18:16.416Z,992.39
2023-05-21T16:19:15.687Z,992.41
2023-05-21T16:20:15.649Z,992.39
2023-05-21T16:21:15.559Z,992.42
2023-05-21T16:22:15.580Z,992.42
2023-05-21T16:23:15.487Z,992.36
2023-05-21T16:24:15.687Z,992.42
2023-05-21T16:25:15.446Z,992.41
2023-05-21T16:26:15.646Z,992.42
2023-05-21T16:27:15.642Z,992.42
2023-05-21T16:28:15.748Z,992.32
2023-05-21T16:29:15.892Z,992.30
2023-05-21T16:30:15.589Z,992.29
2023-05-21T16:31:15.499Z,992.34
2023-05-21T16:32:15.985Z,992.25
2023-05-21T16:33:15.656Z,992.29
2023-05-21T16:34:15.793Z,992.29
2023-05-21T16:35:15.592Z,992.26
2023-05-21T16:36:17.475Z,992.19
2023-05-21T16:37:15.537Z,992.20
2023-05-21T16:38:15.448Z,992.19
2023-05-21T16:39:15.540Z,992.20
2023-05-21T16:40:15.712Z,992.22
2023-05-21T16:41:15.345Z,992.17
2023-05-21T16:42:15.528Z,992.09
2023-05-21T16:43:15.567Z,992.14
2023-05-21T16:44:15.751Z,992.16
2023-05-21T16:45:15.642Z,992.11
2023-05-21T16:46:16.941Z,992.14
2023-05-21T16:47:15.565Z,992.13
2023-05-21T16:48:15.566Z,992.11
2023-05-21T16:49:15.615Z,992.08
2023-05-21T16:50:15.960Z,992.03
2023-05-21T16:51:15.542Z,992.13
2023-05-21T16:52:15.548Z,992.10
2023-05-21T16:53:15.541Z,992.10
2023-05-21T16:54:15.486Z,992.10
2023-05-21T16:55:15.401Z,992.12
2023-05-21T16:56:16.038Z,992.07
2023-05-21T16:57:15.299Z,992.08
2023-05-21T16:58:15.652Z,992.09
2023-05-21T16:59:15.491Z,992.08
2023-05-21T17:00:15.456Z,992.07
2023-05-21T17:01:15.772Z,992.11
2023-05-21T17:02:15.382Z,992.09
2023-05-21T17:03:15.461Z,992.12
2023-05-21T17:04:16.488Z,992.10
2023-05-21T17:05:15.286Z,992.21
2023-05-21T17:06:16.002Z,992.21
2023-05-21T17:07:15.324Z,992.12
2023-05-21T17:08:15.432Z,992.08
2023-05-21T17:09:16.490Z,992.11
2023-05-21T17:10:15.436Z,992.08
2023-05-21T17:11:15.689Z,992.08
2023-05-21T17:12:15.900Z,992.13
2023-05-21T17:13:22.170Z,992.13
2023-05-21T17:14:32.682Z,992.14
2023-05-21T17:15:17.247Z,992.05
2023-05-21T17:16:15.311Z,992.06
2023-05-21T17:17:15.531Z,992.07
2023-05-21T17:18:15.341Z,992.12
2023-05-21T17:19:15.375Z,992.15
2023-05-21T17:20:15.328Z,992.14
2023-05-21T17:21:15.253Z,992.12
2023-05-21T17:22:15.426Z,992.07
2023-05-21T17:23:15.411Z,992.09
2023-05-21T17:24:15.292Z,992.14
2023-05-21T17:25:15.232Z,992.12
2023-05-21T17:26:15.172Z,992.11
2023-05-21T17:27:15.313Z,992.08
2023-05-21T17:28:15.062Z,992.10
2023-05-21T17:29:15.086Z,992.11
2023-05-21T17:30:15.309Z,992.10
2023-05-21T17:31:15.020Z,992.11
2023-05-21T17:32:14.804Z,992.12
2023-05-21T17:33:15.422Z,992.13
2023-05-21T17:34:14.797Z,992.13
2023-05-21T17:35:14.726Z,992.19
2023-05-21T17:36:15.165Z,992.16
2023-05-21T17:37:15.359Z,992.21
2023-05-21T17:38:15.381Z,992.21
2023-05-21T17:39:15.214Z,992.21
2023-05-21T17:40:15.149Z,992.27
2023-05-21T17:41:15.186Z,992.22
2023-05-21T17:42:14.868Z,992.31
2023-05-21T17:43:14.731Z,992.26
2023-05-21T17:44:15.285Z,992.26
2023-05-21T17:45:15.933Z,992.24
2023-05-21T17:46:14.974Z,992.29
2023-05-21T17:47:15.192Z,992.26
2023-05-21T17:48:15.075Z,992.27
2023-05-21T17:49:15.243Z,992.28
2023-05-21T17:50:14.939Z,992.27
2023-05-21T17:51:15.627Z,992.27
2023-05-21T17:52:15.266Z,992.33
2023-05-21T17:53:15.064Z,992.35
2023-05-21T17:54:15.236Z,992.34
2023-05-21T17:55:15.158Z,992.33
2023-05-21T17:56:15.083Z,992.29
2023-05-21T17:57:15.134Z,992.33
2023-05-21T17:58:15.049Z,992.36
2023-05-21T17:59:15.005Z,992.38
2023-05-21T18:00:15.106Z,992.40
2023-05-21T18:01:14.989Z,992.39
2023-05-21T18:02:15.002Z,992.34
2023-05-21T18:03:15.758Z,992.34
2023-05-21T18:04:14.974Z,992.32
2023-05-21T18:05:15.229Z,992.24
2023-05-21T18:06:15.053Z,992.20
2023-05-21T18:07:14.932Z,992.28
2023-05-21T18:08:15.029Z,992.25
2023-05-21T18:09:15.021Z,992.24
2023-05-21T18:10:15.400Z,992.26
2023-05-21T18:11:14.994Z,992.20
2023-05-21T18:12:14.800Z,992.15
2023-05-21T18:13:14.790Z,992.15
2023-05-21T18:14:14.946Z,992.17
2023-05-21T18:15:14.903Z,992.13
2023-05-21T18:16:15.164Z,992.24
2023-05-21T18:17:14.889Z,992.18
2023-05-21T18:18:14.852Z,992.25
2023-05-21T18:19:14.980Z,992.22
2023-05-21T18:20:15.174Z,992.19
2023-05-21T18:21:15.152Z,992.26
2023-05-21T18:22:15.040Z,992.18
2023-05-21T18:23:15.865Z,992.19
2023-05-21T18:24:14.894Z,992.28
2023-05-21T18:25:14.929Z,992.26
2023-05-21T18:26:14.894Z,992.24
2023-05-21T18:27:14.763Z,992.29
2023-05-21T18:28:14.717Z,992.26
2023-05-21T18:29:14.801Z,992.27
2023-05-21T18:30:14.780Z,992.34
2023-05-21T18:31:14.805Z,992.23
2023-05-21T18:32:15.343Z,992.29
2023-05-21T18:33:15.894Z,992.30
2023-05-21T18:34:16.180Z,992.27
2023-05-21T18:35:16.682Z,992.33
2023-05-21T18:36:15.788Z,992.35
2023-05-21T18:37:15.045Z,992.34
2023-05-21T18:38:14.735Z,992.25
2023-05-21T18:39:15.055Z,992.37
2023-05-21T18:40:15.857Z,992.35
2023-05-21T18:41:14.702Z,992.32
2023-05-21T18:42:15.044Z,992.33
2023-05-21T18:43:14.598Z,992.39
2023-05-21T18:44:14.635Z,992.35
2023-05-21T18:45:14.643Z,992.25
2023-05-21T18:46:14.691Z,992.33
2023-05-21T18:47:14.807Z,992.35
2023-05-21T18:48:15.152Z,992.30
2023-05-21T18:49:14.788Z,992.35
2023-05-21T18:50:15.864Z,992.35
2023-05-21T18:51:14.721Z,992.26
2023-05-21T18:52:14.751Z,992.40
2023-05-21T18:53:16.103Z,992.39
2023-05-21T18:54:14.882Z,992.47
2023-05-21T18:55:14.668Z,992.33
2023-05-21T18:56:14.596Z,992.52
2023-05-21T18:57:14.800Z,992.49
2023-05-21T18:58:14.919Z,992.39
2023-05-21T18:59:14.604Z,992.51
2023-05-21T19:00:15.981Z,992.56
2023-05-21T19:01:14.755Z,992.44
2023-05-21T19:02:14.774Z,992.49
2023-05-21T19:03:14.803Z,992.46
2023-05-21T19:04:14.989Z,992.52
2023-05-21T19:05:14.745Z,992.56
2023-05-21T19:06:14.766Z,992.52
2023-05-21T19:07:14.551Z,992.56
2023-05-21T19:08:14.395Z,992.55
2023-05-21T19:09:14.775Z,992.55
2023-05-21T19:10:14.584Z,992.62
2023-05-21T19:11:14.611Z,992.48
2023-05-21T19:12:14.592Z,992.52
2023-05-21T19:13:15.787Z,992.52
2023-05-21T19:14:15.248Z,992.52
2023-05-21T19:15:14.523Z,992.58
2023-05-21T19:16:14.351Z,992.55
2023-05-21T19:17:15.433Z,992.53
2023-05-21T19:18:14.436Z,992.59
2023-05-21T19:19:14.472Z,992.53
2023-05-21T19:20:15.715Z,992.53
2023-05-21T19:21:15.434Z,992.60
2023-05-21T19:22:14.475Z,992.57
2023-05-21T19:23:14.395Z,992.56
2023-05-21T19:24:14.467Z,992.56
2023-05-21T19:25:14.793Z,992.58
2023-05-21T19:26:15.529Z,992.58
2023-05-21T19:27:15.435Z,992.64
2023-05-21T19:28:14.745Z,992.64
2023-05-21T19:29:14.515Z,992.65
2023-05-21T19:30:14.697Z,992.63
2023-05-21T19:31:14.314Z,992.74
2023-05-21T19:32:15.378Z,992.62
2023-05-21T19:33:14.508Z,992.60
2023-05-21T19:34:14.272Z,992.66
2023-05-21T19:35:14.166Z,992.70
2023-05-21T19:36:14.631Z,992.62
2023-05-21T19:37:14.365Z,992.74
2023-05-21T19:38:14.371Z,992.68
2023-05-21T19:39:14.362Z,992.68
2023-05-21T19:40:14.402Z,992.74
2023-05-21T19:41:14.561Z,992.69
2023-05-21T19:42:14.687Z,992.72
2023-05-21T19:43:14.297Z,992.77
2023-05-21T19:44:15.345Z,992.71
2023-05-21T19:45:15.338Z,992.76
2023-05-21T19:46:17.218Z,992.80
2023-05-21T19:47:15.291Z,992.80
2023-05-21T19:48:14.246Z,992.80
2023-05-21T19:49:14.242Z,992.81
2023-05-21T19:50:14.245Z,992.85
2023-05-21T19:51:14.049Z,992.81
2023-05-21T19:52:15.547Z,992.91
2023-05-21T19:53:14.249Z,992.81
2023-05-21T19:54:15.234Z,992.85
2023-05-21T19:55:14.447Z,992.86
2023-05-21T19:56:14.446Z,992.82
2023-05-21T19:57:14.423Z,992.80
2023-05-21T19:58:14.273Z,992.83
2023-05-21T19:59:14.086Z,992.78
2023-05-21T20:00:14.154Z,992.79
2023-05-21T20:01:14.101Z,992.85
2023-05-21T20:02:14.321Z,992.85
2023-05-21T20:03:14.083Z,992.79
2023-05-21T20:04:14.124Z,992.89
2023-05-21T20:05:14.048Z,992.82
2023-05-21T20:06:14.050Z,992.85
2023-05-21T20:07:14.018Z,992.82
2023-05-21T20:08:14.291Z,992.76
2023-05-21T20:09:14.096Z,992.88
2023-05-21T20:10:14.441Z,992.88
2023-05-21T20:11:14.129Z,992.85
2023-05-21T20:12:14.101Z,992.90
2023-05-21T20:13:14.977Z,992.85
2023-05-21T20:14:14.066Z,992.91
2023-05-21T20:15:14.108Z,992.83
2023-05-21T20:16:14.089Z,992.89
2023-05-21T20:17:14.054Z,992.86
2023-05-21T20:18:14.381Z,992.86
2023-05-21T20:19:14.005Z,992.88
2023-05-21T20:20:13.968Z,992.83
2023-05-21T20:21:14.042Z,992.85
2023-05-21T20:22:13.961Z,992.83
2023-05-21T20:23:14.249Z,992.85
2023-05-21T20:24:14.447Z,992.85
2023-05-21T20:25:14.040Z,992.87
2023-05-21T20:26:14.986Z,992.87
2023-05-21T20:27:13.857Z,992.90
2023-05-21T20:28:13.953Z,992.90
2023-05-21T20:29:14.257Z,992.87
2023-05-21T20:30:13.971Z,992.90
2023-05-21T20:31:13.883Z,992.89
2023-05-21T20:32:13.839Z,992.84
2023-05-21T20:33:13.939Z,992.90
2023-05-21T20:34:14.147Z,992.88
2023-05-21T20:35:14.005Z,992.89
2023-05-21T20:36:13.859Z,992.92
2023-05-21T20:37:13.733Z,992.95
2023-05-21T20:38:13.832Z,992.93
2023-05-21T20:39:13.898Z,992.98
2023-05-21T20:40:14.975Z,992.91
2023-05-21T20:41:14.892Z,992.98
2023-05-21T20:42:13.663Z,993.01
2023-05-21T20:43:13.863Z,992.97
2023-05-21T20:44:13.812Z,993.01
2023-05-21T20:45:14.146Z,992.98
2023-05-21T20:46:13.882Z,992.94
2023-05-21T20:47:14.069Z,992.95
2023-05-21T20:48:13.881Z,992.96
2023-05-21T20:49:13.724Z,993.01
2023-05-21T20:50:13.920Z,993.01
2023-05-21T20:51:13.621Z,993.06
2023-05-21T20:52:13.744Z,992.97
2023-05-21T20:53:13.676Z,992.95
2023-05-21T20:54:13.837Z,992.92
2023-05-21T20:55:13.826Z,993.00
2023-05-21T20:56:13.972Z,992.92
2023-05-21T20:57:13.892Z,992.93
2023-05-21T20:58:14.574Z,992.96
2023-05-21T20:59:14.033Z,992.96
2023-05-21T21:00:13.821Z,992.90
2023-05-21T21:01:14.075Z,992.93
2023-05-21T21:02:13.622Z,992.97
2023-05-21T21:03:14.826Z,992.92
2023-05-21T21:04:13.600Z,992.96
2023-05-21T21:05:13.909Z,993.02
2023-05-21T21:06:13.779Z,993.01
2023-05-21T21:07:13.627Z,993.02
2023-05-21T21:08:13.601Z,992.99
2023-05-21T21:09:13.573Z,993.03
2023-05-21T21:10:13.458Z,993.00
2023-05-21T21:11:13.465Z,992.98
2023-05-21T21:12:25.417Z,992.98
2023-05-21T21:13:15.504Z,992.93
2023-05-21T21:14:13.253Z,993.00
2023-05-21T21:15:13.557Z,992.98
2023-05-21T21:16:14.056Z,993.00
2023-05-21T21:17:14.868Z,992.99
2023-05-21T21:18:14.645Z,992.95
2023-05-21T21:19:13.542Z,993.03
2023-05-21T21:20:13.563Z,992.94
2023-05-21T21:21:13.613Z,992.98
2023-05-21T21:22:14.113Z,992.94
2023-05-21T21:23:13.596Z,992.95
2023-05-21T21:24:13.605Z,992.91
2023-05-21T21:25:13.371Z,992.93
2023-05-21T21:26:13.468Z,992.91
2023-05-21T21:27:13.373Z,992.93
2023-05-21T21:28:13.615Z,992.94
2023-05-21T21:29:13.480Z,992.97
2023-05-21T21:30:13.426Z,992.94
2023-05-21T21:31:13.444Z,992.90
2023-05-21T21:32:13.541Z,992.93
2023-05-21T21:33:13.714Z,992.96
2023-05-21T21:34:13.453Z,992.99
2023-05-21T21:35:13.141Z,992.99
2023-05-21T21:36:13.395Z,992.92
2023-05-21T21:37:13.701Z,992.89
2023-05-21T21:38:13.615Z,993.01
2023-05-21T21:39:13.147Z,992.93
2023-05-21T21:40:13.123Z,992.99
2023-05-21T21:41:13.230Z,993.02
2023-05-21T21:42:13.047Z,992.97
2023-05-21T21:43:13.233Z,992.93
2023-05-21T21:44:13.559Z,992.96
2023-05-21T21:45:13.187Z,992.99
2023-05-21T21:46:14.492Z,993.05
2023-05-21T21:47:13.334Z,993.01
2023-05-21T21:48:13.208Z,992.94
2023-05-21T21:49:13.004Z,993.00
2023-05-21T21:50:12.847Z,993.04
2023-05-21T21:51:13.238Z,993.06
2023-05-21T21:52:12.746Z,993.01
2023-05-21T21:53:13.011Z,993.07
2023-05-21T21:54:13.075Z,993.04
2023-05-21T21:55:12.923Z,993.10
2023-05-21T21:56:12.634Z,993.09
2023-05-21T21:57:12.718Z,993.10
2023-05-21T21:58:12.660Z,993.17
2023-05-21T21:59:12.775Z,993.21
2023-05-21T22:00:13.024Z,993.20
2023-05-21T22:01:12.613Z,993.19
2023-05-21T22:02:12.735Z,993.15
2023-05-21T22:03:14.609Z,993.23
2023-05-21T22:04:12.535Z,993.18
2023-05-21T22:05:12.527Z,993.18
2023-05-21T22:06:12.601Z,993.22
2023-05-21T22:07:12.509Z,993.17
2023-05-21T22:08:12.548Z,993.16
2023-05-21T22:09:12.561Z,993.17
2023-05-21T22:10:13.028Z,993.21
2023-05-21T22:11:12.664Z,993.21
2023-05-21T22:12:12.516Z,993.22
2023-05-21T22:13:12.680Z,993.27
2023-05-21T22:14:12.484Z,993.27
2023-05-21T22:15:12.658Z,993.24
2023-05-21T22:16:12.721Z,993.19
2023-05-21T22:17:12.613Z,993.25
2023-05-21T22:18:12.590Z,993.26
2023-05-21T22:19:12.485Z,993.28
2023-05-21T22:20:12.521Z,993.23
2023-05-21T22:21:12.584Z,993.14
2023-05-21T22:22:12.700Z,993.15
2023-05-21T22:23:12.526Z,993.21
2023-05-21T22:24:24.124Z,993.22
2023-05-21T22:25:14.406Z,993.18
2023-05-21T22:26:12.804Z,993.19
2023-05-21T22:27:12.525Z,993.18
2023-05-21T22:28:12.476Z,993.19
2023-05-21T22:29:12.477Z,993.21
2023-05-21T22:30:12.380Z,993.21
2023-05-21T22:31:12.437Z,993.20
2023-05-21T22:32:12.520Z,993.22
2023-05-21T22:33:12.447Z,993.24
2023-05-21T22:34:12.596Z,993.23
2023-05-21T22:35:12.270Z,993.23
2023-05-21T22:36:12.272Z,993.19
2023-05-21T22:37:12.294Z,993.12
2023-05-21T22:38:12.240Z,993.19
2023-05-21T22:39:12.255Z,993.13
2023-05-21T22:40:13.082Z,993.09
2023-05-21T22:41:13.309Z,993.13
2023-05-21T22:42:12.273Z,993.18
2023-05-21T22:43:12.250Z,993.16
2023-05-21T22:44:12.316Z,993.17
2023-05-21T22:45:12.262Z,993.19
2023-05-21T22:46:12.654Z,993.24
2023-05-21T22:47:12.256Z,993.14
2023-05-21T22:48:12.437Z,993.20
2023-05-21T22:49:12.255Z,993.09
2023-05-21T22:50:12.203Z,993.06
2023-05-21T22:51:12.213Z,993.07
2023-05-21T22:52:12.269Z,993.05
2023-05-21T22:53:12.274Z,993.10
2023-05-21T22:54:12.227Z,993.06
2023-05-21T22:55:12.209Z,993.03
2023-05-21T22:56:12.255Z,993.05
2023-05-21T22:57:12.515Z,993.01
2023-05-21T22:58:12.247Z,993.12
2023-05-21T22:59:12.210Z,992.98
2023-05-21T23:00:12.182Z,992.97
2023-05-21T23:01:12.186Z,993.06
2023-05-21T23:02:12.305Z,993.02
2023-05-21T23:03:12.215Z,992.99
2023-05-21T23:04:12.144Z,992.98
2023-05-21T23:05:12.251Z,992.98
2023-05-21T23:06:12.207Z,993.01
2023-05-21T23:07:12.172Z,993.04
2023-05-21T23:08:12.381Z,992.97
2023-05-21T23:09:12.076Z,992.99
2023-05-21T23:10:11.983Z,993.04
2023-05-21T23:11:12.000Z,993.08
2023-05-21T23:12:11.982Z,993.05
2023-05-21T23:13:12.077Z,992.98